sensor_id;sensor_type;location;lat;lon;timestamp;P1;durP1;ratioP1;P2;durP2;ratioP2
51451;SDS011;37521;52.020;-1.740;2023-03-01T00:01:22;0.55;;;0.30;;
51451;SDS011;37521;52.020;-1.740;2023-03-01T00:03:52;0.17;;;0.15;;
51451;SDS011;37521;52.020;-1.740;2023-03-01T00:06:22;0.30;;;0.20;;
51451;SDS011;37521;52.020;-1.740;2023-03-01T00:08:50;0.85;;;0.60;;
51451;SDS011;37521;52.020;-1.740;2023-03-01T00:11:20;0.20;;;0.20;;
51451;SDS011;37521;52.020;-1.740;2023-03-01T00:13:51;1.55;;;0.28;;
51451;SDS011;37521;52.020;-1.740;2023-03-01T00:16:21;0.98;;;0.43;;
51451;SDS011;37521;52.020;-1.740;2023-03-01T00:18:51;0.20;;;0.20;;
51451;SDS011;37521;52.020;-1.740;2023-03-01T00:21:19;0.20;;;0.20;;
51451;SDS011;37521;52.020;-1.740;2023-03-01T00:23:52;0.30;;;0.10;;
51451;SDS011;37521;52.020;-1.740;2023-03-01T00:26:21;0.30;;;0.25;;
51451;SDS011;37521;52.020;-1.740;2023-03-01T00:28:51;0.38;;;0.38;;
51451;SDS011;37521;52.020;-1.740;2023-03-01T00:31:20;0.38;;;0.38;;
51451;SDS011;37521;52.020;-1.740;2023-03-01T00:33:52;0.47;;;0.30;;
51451;SDS011;37521;52.020;-1.740;2023-03-01T00:36:26;0.20;;;0.20;;
51451;SDS011;37521;52.020;-1.740;2023-03-01T00:38:56;1.23;;;0.20;;
51451;SDS011;37521;52.020;-1.740;2023-03-01T00:41:25;0.30;;;0.30;;
51451;SDS011;37521;52.020;-1.740;2023-03-01T00:43:54;0.30;;;0.30;;
51451;SDS011;37521;52.020;-1.740;2023-03-01T00:46:23;0.10;;;0.10;;
51451;SDS011;37521;52.020;-1.740;2023-03-01T00:48:53;0.20;;;0.20;;
51451;SDS011;37521;52.020;-1.740;2023-03-01T00:51:22;0.20;;;0.20;;
51451;SDS011;37521;52.020;-1.740;2023-03-01T00:53:53;0.40;;;0.30;;
51451;SDS011;37521;52.020;-1.740;2023-03-01T00:56:24;0.50;;;0.50;;
51451;SDS011;37521;52.020;-1.740;2023-03-01T00:58:53;1.02;;;0.73;;
51451;SDS011;37521;52.020;-1.740;2023-03-01T01:01:21;0.57;;;0.30;;
51451;SDS011;37521;52.020;-1.740;2023-03-01T01:03:52;0.50;;;0.40;;
51451;SDS011;37521;52.020;-1.740;2023-03-01T01:06:23;0.32;;;0.20;;
51451;SDS011;37521;52.020;-1.740;2023-03-01T01:08:54;1.17;;;0.30;;
51451;SDS011;37521;52.020;-1.740;2023-03-01T01:11:23;0.40;;;0.40;;
51451;SDS011;37521;52.020;-1.740;2023-03-01T01:13:53;1.27;;;0.52;;
51451;SDS011;37521;52.020;-1.740;2023-03-01T01:16:22;1.23;;;0.40;;
51451;SDS011;37521;52.020;-1.740;2023-03-01T01:18:51;0.98;;;0.43;;
51451;SDS011;37521;52.020;-1.740;2023-03-01T01:21:21;0.38;;;0.38;;
51451;SDS011;37521;52.020;-1.740;2023-03-01T01:23:51;1.88;;;0.73;;
51451;SDS011;37521;52.020;-1.740;2023-03-01T01:26:22;0.98;;;0.20;;
51451;SDS011;37521;52.020;-1.740;2023-03-01T01:28:51;0.45;;;0.40;;
51451;SDS011;37521;52.020;-1.740;2023-03-01T01:31:20;0.17;;;0.17;;
51451;SDS011;37521;52.020;-1.740;2023-03-01T01:33:50;1.20;;;0.52;;
51451;SDS011;37521;52.020;-1.740;2023-03-01T01:36:18;0.80;;;0.57;;
51451;SDS011;37521;52.020;-1.740;2023-03-01T01:38:47;0.30;;;0.30;;
51451;SDS011;37521;52.020;-1.740;2023-03-01T01:41:16;1.02;;;0.75;;
51451;SDS011;37521;52.020;-1.740;2023-03-01T01:43:47;1.20;;;0.65;;
51451;SDS011;37521;52.020;-1.740;2023-03-01T01:46:20;1.73;;;0.50;;
51451;SDS011;37521;52.020;-1.740;2023-03-01T01:48:54;1.67;;;0.63;;
51451;SDS011;37521;52.020;-1.740;2023-03-01T01:51:27;1.58;;;0.60;;
51451;SDS011;37521;52.020;-1.740;2023-03-01T01:54:05;0.68;;;0.68;;
51451;SDS011;37521;52.020;-1.740;2023-03-01T01:56:37;1.00;;;0.73;;
51451;SDS011;37521;52.020;-1.740;2023-03-01T01:59:11;1.60;;;0.73;;
51451;SDS011;37521;52.020;-1.740;2023-03-01T02:01:40;1.15;;;0.57;;
51451;SDS011;37521;52.020;-1.740;2023-03-01T02:04:08;3.92;;;0.90;;
51451;SDS011;37521;52.020;-1.740;2023-03-01T02:06:37;2.05;;;0.95;;
51451;SDS011;37521;52.020;-1.740;2023-03-01T02:09:11;1.02;;;0.73;;
51451;SDS011;37521;52.020;-1.740;2023-03-01T02:11:41;1.20;;;0.82;;
51451;SDS011;37521;52.020;-1.740;2023-03-01T02:14:15;0.45;;;0.45;;
51451;SDS011;37521;52.020;-1.740;2023-03-01T02:16:44;1.05;;;0.43;;
51451;SDS011;37521;52.020;-1.740;2023-03-01T02:19:13;1.75;;;0.70;;
51451;SDS011;37521;52.020;-1.740;2023-03-01T02:21:52;2.60;;;1.02;;
51451;SDS011;37521;52.020;-1.740;2023-03-01T02:24:31;0.93;;;0.85;;
51451;SDS011;37521;52.020;-1.740;2023-03-01T02:27:07;3.13;;;1.08;;
51451;SDS011;37521;52.020;-1.740;2023-03-01T02:29:38;2.03;;;0.93;;
51451;SDS011;37521;52.020;-1.740;2023-03-01T02:32:07;2.72;;;1.13;;
51451;SDS011;37521;52.020;-1.740;2023-03-01T02:34:34;1.20;;;1.02;;
51451;SDS011;37521;52.020;-1.740;2023-03-01T02:37:04;0.80;;;0.68;;
51451;SDS011;37521;52.020;-1.740;2023-03-01T02:39:37;1.27;;;0.68;;
51451;SDS011;37521;52.020;-1.740;2023-03-01T02:44:39;1.02;;;0.77;;
51451;SDS011;37521;52.020;-1.740;2023-03-01T02:47:08;0.68;;;0.68;;
51451;SDS011;37521;52.020;-1.740;2023-03-01T02:49:36;0.80;;;0.80;;
51451;SDS011;37521;52.020;-1.740;2023-03-01T02:52:07;2.42;;;1.10;;
51451;SDS011;37521;52.020;-1.740;2023-03-01T02:54:48;0.93;;;0.65;;
51451;SDS011;37521;52.020;-1.740;2023-03-01T02:57:21;0.70;;;0.70;;
51451;SDS011;37521;52.020;-1.740;2023-03-01T02:59:52;1.65;;;1.02;;
51451;SDS011;37521;52.020;-1.740;2023-03-01T03:02:23;1.45;;;0.75;;
51451;SDS011;37521;52.020;-1.740;2023-03-01T03:05:18;1.27;;;0.93;;
51451;SDS011;37521;52.020;-1.740;2023-03-01T03:07:51;1.15;;;1.05;;
51451;SDS011;37521;52.020;-1.740;2023-03-01T03:10:19;1.40;;;0.88;;
51451;SDS011;37521;52.020;-1.740;2023-03-01T03:12:50;1.38;;;0.98;;
51451;SDS011;37521;52.020;-1.740;2023-03-01T03:15:21;3.58;;;1.73;;
51451;SDS011;37521;52.020;-1.740;2023-03-01T03:17:50;4.22;;;1.23;;
51451;SDS011;37521;52.020;-1.740;2023-03-01T03:20:20;2.75;;;1.75;;
51451;SDS011;37521;52.020;-1.740;2023-03-01T03:22:51;1.80;;;0.75;;
51451;SDS011;37521;52.020;-1.740;2023-03-01T03:25:21;2.58;;;1.02;;
51451;SDS011;37521;52.020;-1.740;2023-03-01T03:27:51;1.75;;;1.17;;
51451;SDS011;37521;52.020;-1.740;2023-03-01T03:30:25;3.63;;;1.42;;
51451;SDS011;37521;52.020;-1.740;2023-03-01T03:32:56;1.10;;;0.47;;
51451;SDS011;37521;52.020;-1.740;2023-03-01T03:35:26;2.60;;;1.25;;
51451;SDS011;37521;52.020;-1.740;2023-03-01T03:37:57;0.95;;;0.43;;
51451;SDS011;37521;52.020;-1.740;2023-03-01T03:40:30;1.00;;;0.55;;
51451;SDS011;37521;52.020;-1.740;2023-03-01T03:43:05;0.90;;;0.70;;
51451;SDS011;37521;52.020;-1.740;2023-03-01T03:45:37;1.48;;;0.77;;
51451;SDS011;37521;52.020;-1.740;2023-03-01T03:48:06;0.63;;;0.50;;
51451;SDS011;37521;52.020;-1.740;2023-03-01T03:50:37;0.70;;;0.50;;
51451;SDS011;37521;52.020;-1.740;2023-03-01T03:53:08;0.65;;;0.50;;
51451;SDS011;37521;52.020;-1.740;2023-03-01T03:55:39;1.75;;;0.85;;
51451;SDS011;37521;52.020;-1.740;2023-03-01T03:58:08;0.75;;;0.70;;
51451;SDS011;37521;52.020;-1.740;2023-03-01T04:00:39;1.58;;;0.63;;
51451;SDS011;37521;52.020;-1.740;2023-03-01T04:03:09;3.42;;;0.47;;
51451;SDS011;37521;52.020;-1.740;2023-03-01T04:05:40;1.40;;;0.50;;
51451;SDS011;37521;52.020;-1.740;2023-03-01T04:08:08;0.38;;;0.38;;
51451;SDS011;37521;52.020;-1.740;2023-03-01T04:10:37;0.50;;;0.40;;
51451;SDS011;37521;52.020;-1.740;2023-03-01T04:13:08;0.40;;;0.40;;
51451;SDS011;37521;52.020;-1.740;2023-03-01T04:15:40;0.43;;;0.35;;
51451;SDS011;37521;52.020;-1.740;2023-03-01T04:18:09;0.40;;;0.32;;
51451;SDS011;37521;52.020;-1.740;2023-03-01T04:20:40;2.65;;;0.65;;
51451;SDS011;37521;52.020;-1.740;2023-03-01T04:23:09;1.45;;;0.47;;
51451;SDS011;37521;52.020;-1.740;2023-03-01T04:25:40;1.50;;;0.65;;
51451;SDS011;37521;52.020;-1.740;2023-03-01T04:28:12;0.73;;;0.47;;
51451;SDS011;37521;52.020;-1.740;2023-03-01T04:30:42;2.70;;;0.55;;
51451;SDS011;37521;52.020;-1.740;2023-03-01T04:33:10;1.10;;;0.68;;
51451;SDS011;37521;52.020;-1.740;2023-03-01T04:35:38;1.00;;;0.80;;
51451;SDS011;37521;52.020;-1.740;2023-03-01T04:38:07;1.00;;;0.90;;
51451;SDS011;37521;52.020;-1.740;2023-03-01T04:40:37;0.30;;;0.30;;
51451;SDS011;37521;52.020;-1.740;2023-03-01T04:43:05;1.13;;;0.38;;
51451;SDS011;37521;52.020;-1.740;2023-03-01T04:45:33;1.05;;;0.80;;
51451;SDS011;37521;52.020;-1.740;2023-03-01T04:48:04;0.40;;;0.40;;
51451;SDS011;37521;52.020;-1.740;2023-03-01T04:50:32;0.60;;;0.38;;
51451;SDS011;37521;52.020;-1.740;2023-03-01T04:53:01;1.15;;;0.47;;
51451;SDS011;37521;52.020;-1.740;2023-03-01T04:55:29;1.08;;;0.85;;
51451;SDS011;37521;52.020;-1.740;2023-03-01T04:57:58;1.00;;;0.88;;
51451;SDS011;37521;52.020;-1.740;2023-03-01T05:00:26;0.52;;;0.32;;
51451;SDS011;37521;52.020;-1.740;2023-03-01T05:02:55;0.40;;;0.30;;
51451;SDS011;37521;52.020;-1.740;2023-03-01T05:05:27;0.57;;;0.55;;
51451;SDS011;37521;52.020;-1.740;2023-03-01T05:07:58;1.85;;;0.32;;
51451;SDS011;37521;52.020;-1.740;2023-03-01T05:10:28;1.27;;;0.75;;
51451;SDS011;37521;52.020;-1.740;2023-03-01T05:12:58;0.57;;;0.40;;
51451;SDS011;37521;52.020;-1.740;2023-03-01T05:15:27;0.38;;;0.35;;
51451;SDS011;37521;52.020;-1.740;2023-03-01T05:17:58;0.60;;;0.57;;
51451;SDS011;37521;52.020;-1.740;2023-03-01T05:20:29;1.08;;;0.40;;
51451;SDS011;37521;52.020;-1.740;2023-03-01T05:22:58;2.45;;;0.32;;
51451;SDS011;37521;52.020;-1.740;2023-03-01T05:25:32;0.75;;;0.57;;
51451;SDS011;37521;52.020;-1.740;2023-03-01T05:28:01;0.10;;;0.10;;
51451;SDS011;37521;52.020;-1.740;2023-03-01T05:30:31;1.30;;;0.28;;
51451;SDS011;37521;52.020;-1.740;2023-03-01T05:33:00;0.40;;;0.40;;
51451;SDS011;37521;52.020;-1.740;2023-03-01T05:35:32;0.35;;;0.35;;
51451;SDS011;37521;52.020;-1.740;2023-03-01T05:38:00;0.52;;;0.52;;
51451;SDS011;37521;52.020;-1.740;2023-03-01T05:40:29;0.32;;;0.20;;
51451;SDS011;37521;52.020;-1.740;2023-03-01T05:42:57;0.50;;;0.35;;
51451;SDS011;37521;52.020;-1.740;2023-03-01T05:45:26;1.67;;;0.50;;
51451;SDS011;37521;52.020;-1.740;2023-03-01T05:47:55;0.30;;;0.28;;
51451;SDS011;37521;52.020;-1.740;2023-03-01T05:50:23;0.73;;;0.73;;
51451;SDS011;37521;52.020;-1.740;2023-03-01T05:52:58;1.60;;;0.63;;
51451;SDS011;37521;52.020;-1.740;2023-03-01T05:55:28;3.17;;;0.55;;
51451;SDS011;37521;52.020;-1.740;2023-03-01T05:57:58;1.55;;;0.98;;
51451;SDS011;37521;52.020;-1.740;2023-03-01T06:00:28;1.15;;;0.60;;
51451;SDS011;37521;52.020;-1.740;2023-03-01T06:02:57;2.55;;;0.80;;
51451;SDS011;37521;52.020;-1.740;2023-03-01T06:05:26;2.42;;;0.80;;
51451;SDS011;37521;52.020;-1.740;2023-03-01T06:07:57;1.52;;;0.98;;
51451;SDS011;37521;52.020;-1.740;2023-03-01T06:10:28;1.27;;;0.60;;
51451;SDS011;37521;52.020;-1.740;2023-03-01T06:12:57;2.17;;;0.82;;
51451;SDS011;37521;52.020;-1.740;2023-03-01T06:15:25;3.78;;;1.45;;
51451;SDS011;37521;52.020;-1.740;2023-03-01T06:17:54;4.65;;;1.67;;
51451;SDS011;37521;52.020;-1.740;2023-03-01T06:20:26;0.85;;;0.82;;
51451;SDS011;37521;52.020;-1.740;2023-03-01T06:22:56;1.33;;;0.93;;
51451;SDS011;37521;52.020;-1.740;2023-03-01T06:25:27;1.08;;;0.70;;
51451;SDS011;37521;52.020;-1.740;2023-03-01T06:27:55;1.67;;;0.82;;
51451;SDS011;37521;52.020;-1.740;2023-03-01T06:30:24;0.90;;;0.65;;
51451;SDS011;37521;52.020;-1.740;2023-03-01T06:32:53;0.40;;;0.38;;
51451;SDS011;37521;52.020;-1.740;2023-03-01T06:35:28;0.55;;;0.43;;
51451;SDS011;37521;52.020;-1.740;2023-03-01T06:37:57;0.57;;;0.40;;
51451;SDS011;37521;52.020;-1.740;2023-03-01T06:40:28;0.98;;;0.38;;
51451;SDS011;37521;52.020;-1.740;2023-03-01T06:42:57;1.17;;;0.88;;
51451;SDS011;37521;52.020;-1.740;2023-03-01T06:45:26;1.67;;;0.85;;
51451;SDS011;37521;52.020;-1.740;2023-03-01T06:48:01;0.95;;;0.85;;
51451;SDS011;37521;52.020;-1.740;2023-03-01T06:50:30;1.83;;;1.10;;
51451;SDS011;37521;52.020;-1.740;2023-03-01T06:52:59;2.08;;;1.08;;
51451;SDS011;37521;52.020;-1.740;2023-03-01T06:55:28;2.70;;;1.67;;
51451;SDS011;37521;52.020;-1.740;2023-03-01T06:57:57;2.00;;;1.50;;
51451;SDS011;37521;52.020;-1.740;2023-03-01T07:00:26;2.15;;;1.15;;
51451;SDS011;37521;52.020;-1.740;2023-03-01T07:02:56;2.28;;;1.30;;
51451;SDS011;37521;52.020;-1.740;2023-03-01T07:05:27;4.70;;;1.02;;
51451;SDS011;37521;52.020;-1.740;2023-03-01T07:07:57;2.33;;;1.27;;
51451;SDS011;37521;52.020;-1.740;2023-03-01T07:10:29;3.08;;;1.60;;
51451;SDS011;37521;52.020;-1.740;2023-03-01T07:12:58;4.18;;;2.10;;
51451;SDS011;37521;52.020;-1.740;2023-03-01T07:15:27;2.63;;;1.70;;
51451;SDS011;37521;52.020;-1.740;2023-03-01T07:17:58;3.78;;;1.70;;
51451;SDS011;37521;52.020;-1.740;2023-03-01T07:20:28;1.65;;;1.48;;
51451;SDS011;37521;52.020;-1.740;2023-03-01T07:22:57;2.55;;;1.55;;
51451;SDS011;37521;52.020;-1.740;2023-03-01T07:25:29;1.50;;;1.40;;
51451;SDS011;37521;52.020;-1.740;2023-03-01T07:27:59;1.73;;;1.20;;
51451;SDS011;37521;52.020;-1.740;2023-03-01T07:30:29;3.08;;;1.92;;
51451;SDS011;37521;52.020;-1.740;2023-03-01T07:32:58;2.22;;;1.42;;
51451;SDS011;37521;52.020;-1.740;2023-03-01T07:35:29;5.10;;;2.05;;
51451;SDS011;37521;52.020;-1.740;2023-03-01T07:37:59;3.10;;;2.25;;
51451;SDS011;37521;52.020;-1.740;2023-03-01T07:40:31;2.58;;;1.58;;
51451;SDS011;37521;52.020;-1.740;2023-03-01T07:43:00;2.45;;;1.35;;
51451;SDS011;37521;52.020;-1.740;2023-03-01T07:45:30;1.45;;;1.05;;
51451;SDS011;37521;52.020;-1.740;2023-03-01T07:48:00;1.98;;;1.45;;
51451;SDS011;37521;52.020;-1.740;2023-03-01T07:50:30;2.58;;;1.13;;
51451;SDS011;37521;52.020;-1.740;2023-03-01T07:52:59;2.95;;;1.63;;
51451;SDS011;37521;52.020;-1.740;2023-03-01T07:55:31;0.65;;;0.63;;
51451;SDS011;37521;52.020;-1.740;2023-03-01T07:58:01;1.25;;;0.98;;
51451;SDS011;37521;52.020;-1.740;2023-03-01T08:00:31;1.90;;;1.08;;
51451;SDS011;37521;52.020;-1.740;2023-03-01T08:03:00;2.28;;;1.70;;
51451;SDS011;37521;52.020;-1.740;2023-03-01T08:05:30;2.30;;;1.40;;
51451;SDS011;37521;52.020;-1.740;2023-03-01T08:08:00;1.52;;;1.17;;
51451;SDS011;37521;52.020;-1.740;2023-03-01T08:10:28;1.15;;;0.75;;
51451;SDS011;37521;52.020;-1.740;2023-03-01T08:12:58;1.35;;;0.90;;
51451;SDS011;37521;52.020;-1.740;2023-03-01T08:15:27;3.13;;;1.00;;
51451;SDS011;37521;52.020;-1.740;2023-03-01T08:17:58;0.43;;;0.43;;
51451;SDS011;37521;52.020;-1.740;2023-03-01T08:20:28;1.13;;;1.02;;
51451;SDS011;37521;52.020;-1.740;2023-03-01T08:22:57;0.80;;;0.80;;
51451;SDS011;37521;52.020;-1.740;2023-03-01T08:25:27;1.00;;;0.68;;
51451;SDS011;37521;52.020;-1.740;2023-03-01T08:27:59;1.38;;;0.70;;
51451;SDS011;37521;52.020;-1.740;2023-03-01T08:30:29;0.55;;;0.38;;
51451;SDS011;37521;52.020;-1.740;2023-03-01T08:32:58;0.25;;;0.25;;
51451;SDS011;37521;52.020;-1.740;2023-03-01T08:35:29;1.40;;;0.75;;
51451;SDS011;37521;52.020;-1.740;2023-03-01T08:37:58;0.43;;;0.30;;
51451;SDS011;37521;52.020;-1.740;2023-03-01T08:40:28;1.30;;;0.75;;
51451;SDS011;37521;52.020;-1.740;2023-03-01T08:42:58;1.52;;;0.85;;
51451;SDS011;37521;52.020;-1.740;2023-03-01T08:45:27;1.13;;;0.60;;
51451;SDS011;37521;52.020;-1.740;2023-03-01T08:47:55;0.25;;;0.25;;
51451;SDS011;37521;52.020;-1.740;2023-03-01T08:50:23;0.63;;;0.57;;
51451;SDS011;37521;52.020;-1.740;2023-03-01T08:52:51;0.60;;;0.55;;
51451;SDS011;37521;52.020;-1.740;2023-03-01T08:55:20;1.42;;;0.75;;
51451;SDS011;37521;52.020;-1.740;2023-03-01T08:57:48;1.10;;;0.98;;
51451;SDS011;37521;52.020;-1.740;2023-03-01T09:00:18;1.13;;;0.85;;
51451;SDS011;37521;52.020;-1.740;2023-03-01T09:02:46;0.55;;;0.52;;
51451;SDS011;37521;52.020;-1.740;2023-03-01T09:05:14;0.35;;;0.35;;
51451;SDS011;37521;52.020;-1.740;2023-03-01T09:07:45;2.30;;;1.13;;
51451;SDS011;37521;52.020;-1.740;2023-03-01T09:10:13;1.25;;;0.90;;
51451;SDS011;37521;52.020;-1.740;2023-03-01T09:12:42;1.90;;;0.68;;
51451;SDS011;37521;52.020;-1.740;2023-03-01T09:15:10;0.57;;;0.57;;
51451;SDS011;37521;52.020;-1.740;2023-03-01T09:17:39;2.20;;;0.90;;
51451;SDS011;37521;52.020;-1.740;2023-03-01T09:20:08;2.63;;;0.82;;
51451;SDS011;37521;52.020;-1.740;2023-03-01T09:22:37;0.77;;;0.45;;
51451;SDS011;37521;52.020;-1.740;2023-03-01T09:25:05;0.90;;;0.80;;
51451;SDS011;37521;52.020;-1.740;2023-03-01T09:27:34;1.60;;;0.70;;
51451;SDS011;37521;52.020;-1.740;2023-03-01T09:30:02;1.30;;;0.93;;
51451;SDS011;37521;52.020;-1.740;2023-03-01T09:32:31;0.90;;;0.68;;
51451;SDS011;37521;52.020;-1.740;2023-03-01T09:35:01;1.30;;;1.00;;
51451;SDS011;37521;52.020;-1.740;2023-03-01T09:37:31;1.50;;;1.33;;
51451;SDS011;37521;52.020;-1.740;2023-03-01T09:40:01;2.65;;;1.48;;
51451;SDS011;37521;52.020;-1.740;2023-03-01T09:42:32;2.53;;;0.77;;
51451;SDS011;37521;52.020;-1.740;2023-03-01T09:45:02;1.17;;;1.08;;
51451;SDS011;37521;52.020;-1.740;2023-03-01T09:47:33;2.70;;;0.68;;
51451;SDS011;37521;52.020;-1.740;2023-03-01T09:50:06;1.70;;;1.27;;
51451;SDS011;37521;52.020;-1.740;2023-03-01T09:52:40;1.30;;;1.13;;
51451;SDS011;37521;52.020;-1.740;2023-03-01T09:55:11;2.25;;;1.45;;
51451;SDS011;37521;52.020;-1.740;2023-03-01T09:57:44;0.90;;;0.70;;
51451;SDS011;37521;52.020;-1.740;2023-03-01T10:00:20;4.18;;;1.45;;
51451;SDS011;37521;52.020;-1.740;2023-03-01T10:02:59;2.17;;;1.52;;
51451;SDS011;37521;52.020;-1.740;2023-03-01T10:05:41;3.88;;;1.27;;
51451;SDS011;37521;52.020;-1.740;2023-03-01T10:08:26;1.17;;;1.02;;
51451;SDS011;37521;52.020;-1.740;2023-03-01T10:10:57;1.13;;;0.90;;
51451;SDS011;37521;52.020;-1.740;2023-03-01T10:13:27;1.40;;;1.00;;
51451;SDS011;37521;52.020;-1.740;2023-03-01T10:16:03;4.38;;;1.88;;
51451;SDS011;37521;52.020;-1.740;2023-03-01T10:18:37;2.90;;;1.38;;
51451;SDS011;37521;52.020;-1.740;2023-03-01T10:21:13;2.22;;;1.35;;
51451;SDS011;37521;52.020;-1.740;2023-03-01T10:23:43;2.35;;;1.13;;
51451;SDS011;37521;52.020;-1.740;2023-03-01T10:26:16;2.88;;;1.10;;
51451;SDS011;37521;52.020;-1.740;2023-03-01T10:29:04;1.40;;;1.23;;
51451;SDS011;37521;52.020;-1.740;2023-03-01T10:31:38;8.70;;;2.53;;
51451;SDS011;37521;52.020;-1.740;2023-03-01T10:34:10;3.40;;;1.80;;
51451;SDS011;37521;52.020;-1.740;2023-03-01T10:36:42;2.30;;;1.17;;
51451;SDS011;37521;52.020;-1.740;2023-03-01T10:39:13;3.75;;;1.80;;
51451;SDS011;37521;52.020;-1.740;2023-03-01T10:41:58;0.45;;;0.45;;
51451;SDS011;37521;52.020;-1.740;2023-03-01T10:47:16;2.83;;;1.33;;
51451;SDS011;37521;52.020;-1.740;2023-03-01T10:49:54;6.63;;;2.58;;
51451;SDS011;37521;52.020;-1.740;2023-03-01T10:52:28;4.10;;;2.20;;
51451;SDS011;37521;52.020;-1.740;2023-03-01T10:54:59;2.25;;;1.70;;
51451;SDS011;37521;52.020;-1.740;2023-03-01T10:57:32;2.20;;;1.30;;
51451;SDS011;37521;52.020;-1.740;2023-03-01T11:00:15;2.90;;;1.30;;
51451;SDS011;37521;52.020;-1.740;2023-03-01T11:05:50;3.05;;;1.60;;
51451;SDS011;37521;52.020;-1.740;2023-03-01T11:11:20;4.47;;;1.83;;
51451;SDS011;37521;52.020;-1.740;2023-03-01T11:13:55;3.20;;;2.03;;
51451;SDS011;37521;52.020;-1.740;2023-03-01T11:16:29;2.15;;;1.45;;
51451;SDS011;37521;52.020;-1.740;2023-03-01T11:19:03;3.28;;;2.10;;
51451;SDS011;37521;52.020;-1.740;2023-03-01T11:21:50;4.53;;;1.88;;
51451;SDS011;37521;52.020;-1.740;2023-03-01T11:24:26;1.00;;;0.95;;
51451;SDS011;37521;52.020;-1.740;2023-03-01T11:27:03;2.75;;;1.80;;
51451;SDS011;37521;52.020;-1.740;2023-03-01T11:29:40;1.90;;;1.80;;
51451;SDS011;37521;52.020;-1.740;2023-03-01T11:32:15;2.40;;;1.25;;
51451;SDS011;37521;52.020;-1.740;2023-03-01T11:34:45;2.72;;;1.23;;
51451;SDS011;37521;52.020;-1.740;2023-03-01T11:37:22;1.20;;;1.10;;
51451;SDS011;37521;52.020;-1.740;2023-03-01T11:40:03;2.10;;;0.98;;
51451;SDS011;37521;52.020;-1.740;2023-03-01T11:42:42;3.65;;;1.67;;
51451;SDS011;37521;52.020;-1.740;2023-03-01T11:45:16;1.95;;;1.27;;
51451;SDS011;37521;52.020;-1.740;2023-03-01T11:47:49;1.45;;;1.13;;
51451;SDS011;37521;52.020;-1.740;2023-03-01T11:51:15;1.95;;;1.58;;
51451;SDS011;37521;52.020;-1.740;2023-03-01T11:53:54;2.70;;;1.42;;
51451;SDS011;37521;52.020;-1.740;2023-03-01T11:56:35;1.20;;;1.08;;
51451;SDS011;37521;52.020;-1.740;2023-03-01T12:02:08;5.28;;;1.50;;
51451;SDS011;37521;52.020;-1.740;2023-03-01T12:04:54;1.40;;;1.30;;
51451;SDS011;37521;52.020;-1.740;2023-03-01T12:07:42;0.93;;;0.63;;
51451;SDS011;37521;52.020;-1.740;2023-03-01T12:10:20;1.10;;;0.63;;
51451;SDS011;37521;52.020;-1.740;2023-03-01T12:12:57;0.77;;;0.77;;
51451;SDS011;37521;52.020;-1.740;2023-03-01T12:15:51;1.45;;;1.02;;
51451;SDS011;37521;52.020;-1.740;2023-03-01T12:18:44;0.68;;;0.68;;
51451;SDS011;37521;52.020;-1.740;2023-03-01T12:21:28;0.65;;;0.65;;
51451;SDS011;37521;52.020;-1.740;2023-03-01T12:24:09;0.75;;;0.43;;
51451;SDS011;37521;52.020;-1.740;2023-03-01T12:26:52;2.33;;;1.17;;
51451;SDS011;37521;52.020;-1.740;2023-03-01T12:29:32;1.27;;;1.10;;
51451;SDS011;37521;52.020;-1.740;2023-03-01T12:32:13;2.80;;;1.05;;
51451;SDS011;37521;52.020;-1.740;2023-03-01T12:34:53;1.60;;;1.05;;
51451;SDS011;37521;52.020;-1.740;2023-03-01T12:37:37;2.38;;;1.00;;
51451;SDS011;37521;52.020;-1.740;2023-03-01T12:40:20;1.45;;;1.33;;
51451;SDS011;37521;52.020;-1.740;2023-03-01T12:45:42;4.75;;;2.28;;
51451;SDS011;37521;52.020;-1.740;2023-03-01T12:48:24;1.83;;;1.40;;
51451;SDS011;37521;52.020;-1.740;2023-03-01T12:50:59;2.63;;;1.20;;
51451;SDS011;37521;52.020;-1.740;2023-03-01T12:53:31;1.23;;;1.10;;
51451;SDS011;37521;52.020;-1.740;2023-03-01T12:56:05;1.23;;;0.98;;
51451;SDS011;37521;52.020;-1.740;2023-03-01T12:58:36;0.73;;;0.73;;
51451;SDS011;37521;52.020;-1.740;2023-03-01T13:01:21;3.90;;;1.70;;
51451;SDS011;37521;52.020;-1.740;2023-03-01T13:03:59;2.78;;;1.10;;
51451;SDS011;37521;52.020;-1.740;2023-03-01T13:06:39;1.98;;;0.57;;
51451;SDS011;37521;52.020;-1.740;2023-03-01T13:09:14;1.33;;;1.23;;
51451;SDS011;37521;52.020;-1.740;2023-03-01T13:11:52;1.80;;;1.30;;
51451;SDS011;37521;52.020;-1.740;2023-03-01T13:20:13;1.77;;;1.08;;
51451;SDS011;37521;52.020;-1.740;2023-03-01T13:22:43;1.27;;;0.40;;
51451;SDS011;37521;52.020;-1.740;2023-03-01T13:25:20;2.90;;;1.88;;
51451;SDS011;37521;52.020;-1.740;2023-03-01T13:31:00;1.08;;;0.77;;
51451;SDS011;37521;52.020;-1.740;2023-03-01T13:39:29;0.80;;;0.75;;
51451;SDS011;37521;52.020;-1.740;2023-03-01T13:42:00;2.63;;;1.35;;
51451;SDS011;37521;52.020;-1.740;2023-03-01T13:44:30;0.85;;;0.75;;
51451;SDS011;37521;52.020;-1.740;2023-03-01T13:49:41;1.77;;;0.90;;
51451;SDS011;37521;52.020;-1.740;2023-03-01T13:52:23;1.60;;;1.50;;
51451;SDS011;37521;52.020;-1.740;2023-03-01T13:55:01;2.17;;;1.27;;
51451;SDS011;37521;52.020;-1.740;2023-03-01T13:57:33;2.00;;;0.80;;
51451;SDS011;37521;52.020;-1.740;2023-03-01T14:00:03;0.40;;;0.40;;
51451;SDS011;37521;52.020;-1.740;2023-03-01T14:02:32;1.52;;;1.13;;
51451;SDS011;37521;52.020;-1.740;2023-03-01T14:05:02;1.65;;;1.38;;
51451;SDS011;37521;52.020;-1.740;2023-03-01T14:07:31;3.80;;;1.63;;
51451;SDS011;37521;52.020;-1.740;2023-03-01T14:10:18;1.30;;;1.20;;
51451;SDS011;37521;52.020;-1.740;2023-03-01T14:12:47;2.60;;;0.80;;
51451;SDS011;37521;52.020;-1.740;2023-03-01T14:15:29;1.23;;;1.10;;
51451;SDS011;37521;52.020;-1.740;2023-03-01T14:18:02;2.13;;;1.33;;
51451;SDS011;37521;52.020;-1.740;2023-03-01T14:20:50;0.98;;;0.82;;
51451;SDS011;37521;52.020;-1.740;2023-03-01T14:23:20;1.10;;;0.93;;
51451;SDS011;37521;52.020;-1.740;2023-03-01T14:25:52;2.72;;;1.70;;
51451;SDS011;37521;52.020;-1.740;2023-03-01T14:28:23;1.25;;;0.98;;
51451;SDS011;37521;52.020;-1.740;2023-03-01T14:30:53;1.13;;;0.93;;
51451;SDS011;37521;52.020;-1.740;2023-03-01T14:33:23;2.30;;;1.00;;
51451;SDS011;37521;52.020;-1.740;2023-03-01T14:35:54;0.60;;;0.60;;
51451;SDS011;37521;52.020;-1.740;2023-03-01T14:38:28;0.52;;;0.35;;
51451;SDS011;37521;52.020;-1.740;2023-03-01T14:41:00;2.28;;;1.05;;
51451;SDS011;37521;52.020;-1.740;2023-03-01T14:43:32;1.20;;;0.80;;
51451;SDS011;37521;52.020;-1.740;2023-03-01T14:46:01;1.95;;;1.42;;
51451;SDS011;37521;52.020;-1.740;2023-03-01T14:48:29;3.10;;;2.80;;
51451;SDS011;37521;52.020;-1.740;2023-03-01T14:50:59;4.55;;;2.63;;
51451;SDS011;37521;52.020;-1.740;2023-03-01T14:53:28;4.15;;;2.35;;
51451;SDS011;37521;52.020;-1.740;2023-03-01T14:56:13;2.70;;;1.55;;
51451;SDS011;37521;52.020;-1.740;2023-03-01T14:58:44;1.73;;;1.63;;
51451;SDS011;37521;52.020;-1.740;2023-03-01T15:01:14;2.65;;;0.98;;
51451;SDS011;37521;52.020;-1.740;2023-03-01T15:03:45;1.35;;;0.95;;
51451;SDS011;37521;52.020;-1.740;2023-03-01T15:06:16;3.42;;;1.25;;
51451;SDS011;37521;52.020;-1.740;2023-03-01T15:08:47;3.30;;;1.40;;
51451;SDS011;37521;52.020;-1.740;2023-03-01T15:11:21;4.22;;;1.55;;
51451;SDS011;37521;52.020;-1.740;2023-03-01T15:13:52;1.73;;;1.40;;
51451;SDS011;37521;52.020;-1.740;2023-03-01T15:16:21;1.73;;;1.05;;
51451;SDS011;37521;52.020;-1.740;2023-03-01T15:18:52;0.95;;;0.85;;
51451;SDS011;37521;52.020;-1.740;2023-03-01T15:21:23;6.00;;;1.48;;
51451;SDS011;37521;52.020;-1.740;2023-03-01T15:23:54;1.88;;;0.95;;
51451;SDS011;37521;52.020;-1.740;2023-03-01T15:26:28;1.10;;;0.98;;
51451;SDS011;37521;52.020;-1.740;2023-03-01T15:28:59;0.60;;;0.60;;
51451;SDS011;37521;52.020;-1.740;2023-03-01T15:31:28;1.83;;;0.65;;
51451;SDS011;37521;52.020;-1.740;2023-03-01T15:34:08;0.45;;;0.45;;
51451;SDS011;37521;52.020;-1.740;2023-03-01T15:36:41;0.52;;;0.52;;